Time;durP1;ratioP1;P1;durP2;ratioP2;P2;SDS_P1;SDS_P2;PMS_P1;PMS_P2;Temp;Humidity;BMP_temperature;BMP_pressure;BME280_temperature;BME280_humidity;BME280_pressure;Samples;Min_cycle;Max_cycle;Signal;HPM_P1;HPM_P2
2021/12/31 00:04:31;;;;;;;39.58;24.95;;;;;;;4.48;100.00;99605.84;5073295;28;20474;-94
2021/12/31 00:06:58;;;;;;;40.30;26.65;;;;;;;4.37;100.00;99602.22;5074706;28;20020;-94
2021/12/31 00:09:24;;;;;;;41.47;24.90;;;;;;;4.15;100.00;99574.78;5073921;28;20880;-92
2021/12/31 00:12:04;;;;;;;44.00;26.80;;;;;;;4.20;100.00;99597.63;5071740;28;20036;-93
2021/12/31 00:14:30;;;;;;;40.17;26.52;;;;;;;4.06;100.00;99576.41;5068483;28;20045;-92
2021/12/31 00:16:56;;;;;;;40.38;25.30;;;;;;;4.02;100.00;99576.38;5069735;28;20051;-93
2021/12/31 00:19:22;;;;;;;38.67;25.05;;;;;;;4.03;100.00;99586.88;5071581;28;20139;-93
2021/12/31 00:21:50;;;;;;;37.83;24.02;;;;;;;3.97;100.00;99583.31;5073294;28;20515;-91
2021/12/31 00:24:16;;;;;;;37.05;24.10;;;;;;;4.03;100.00;99602.69;5075241;28;20056;-92
2021/12/31 00:26:42;;;;;;;38.40;24.35;;;;;;;3.92;100.00;99580.63;5076143;28;20429;-92
2021/12/31 00:29:10;;;;;;;35.13;22.38;;;;;;;3.89;100.00;99589.34;5071102;28;20063;-92
2021/12/31 00:34:57;;;;;;;36.95;23.38;;;;;;;3.79;100.00;99591.84;5072764;28;20036;-91
2021/12/31 00:37:27;;;;;;;36.28;22.88;;;;;;;3.73;100.00;99578.59;5078924;28;20052;-91
2021/12/31 00:39:53;;;;;;;37.60;23.15;;;;;;;3.58;100.00;99560.88;5079325;28;20055;-92
2021/12/31 00:42:18;;;;;;;39.28;23.23;;;;;;;3.50;100.00;99556.41;5079645;28;20044;-92
2021/12/31 00:44:46;;;;;;;33.92;22.70;;;;;;;3.43;100.00;99556.31;5079142;28;20123;-92
2021/12/31 00:53:58;;;;;;;51.50;24.52;;;;;;;3.56;100.00;99596.81;5077630;28;20036;-93
2021/12/31 00:56:23;;;;;;;64.70;25.15;;;;;;;3.53;100.00;99599.38;5063594;28;20045;-91
2021/12/31 00:58:55;;;;;;;50.08;25.13;;;;;;;3.27;100.00;99574.50;5077949;28;20556;-91
2021/12/31 01:04:46;;;;;;;41.90;23.73;;;;;;;3.35;100.00;99628.91;5079274;28;20033;-93
2021/12/31 01:07:12;;;;;;;36.77;22.90;;;;;;;3.15;100.00;99599.69;5078634;28;20083;-92
2021/12/31 01:09:38;;;;;;;35.22;21.80;;;;;;;3.22;100.00;99620.81;5079132;28;20285;-92
2021/12/31 01:12:07;;;;;;;34.00;20.85;;;;;;;3.14;100.00;99619.81;5078446;28;20087;-92
2021/12/31 01:14:38;;;;;;;28.88;19.13;;;;;;;3.27;100.00;99642.84;5076450;28;20064;-92
2021/12/31 01:20:27;;;;;;;31.73;20.77;;;;;;;3.22;100.00;99630.47;5058799;28;20082;-93
2021/12/31 01:22:53;;;;;;;42.20;23.17;;;;;;;3.17;100.00;99614.63;5060880;28;20053;-92
2021/12/31 01:25:22;;;;;;;39.80;21.40;;;;;;;3.37;100.00;99646.47;5078727;28;20040;-92
2021/12/31 01:27:48;;;;;;;32.42;21.27;;;;;;;3.26;100.00;99637.53;5079329;28;20048;-91
2021/12/31 01:33:37;;;;;;;42.08;23.42;;;;;;;3.20;100.00;99638.31;5074323;28;20085;-92
2021/12/31 01:36:06;;;;;;;62.20;24.35;;;;;;;3.14;100.00;99642.59;5078320;28;20124;-92
2021/12/31 01:38:32;;;;;;;80.50;23.65;;;;;;;3.13;100.00;99638.19;5077228;28;20059;-93
2021/12/31 01:40:57;;;;;;;87.28;23.33;;;;;;;3.30;100.00;99665.66;5077945;28;20119;-92
2021/12/31 01:43:23;;;;;;;134.43;25.02;;;;;;;3.24;100.00;99655.91;5077917;28;20087;-93
2021/12/31 01:45:59;;;;;;;155.98;24.27;;;;;;;3.21;100.00;99642.72;5077545;28;20040;-93
2021/12/31 01:48:36;;;;;;;154.50;24.73;;;;;;;3.16;100.00;99646.13;5058516;28;20045;-92
2021/12/31 01:51:04;;;;;;;193.57;25.00;;;;;;;3.31;100.00;99666.53;5072337;28;20110;-92
2021/12/31 01:53:31;;;;;;;156.25;23.00;;;;;;;3.09;100.00;99640.75;5078493;28;20045;-91
2021/12/31 01:56:00;;;;;;;159.00;24.45;;;;;;;3.03;100.00;99637.16;5059185;28;20068;-94
2021/12/31 01:58:27;;;;;;;192.10;24.27;;;;;;;3.05;100.00;99649.44;5068962;28;20513;-91
2021/12/31 02:04:36;;;;;;;84.47;21.08;;;;;;;3.19;100.00;99686.50;5063839;28;20037;-93
2021/12/31 02:07:04;;;;;;;109.68;21.63;;;;;;;3.11;100.00;99669.69;5078085;28;20055;-93
2021/12/31 02:09:34;;;;;;;84.30;19.85;;;;;;;3.15;100.00;99670.66;5075459;28;20063;-93
2021/12/31 02:12:01;;;;;;;52.10;20.33;;;;;;;2.98;100.00;99672.97;5078344;28;20457;-92
2021/12/31 02:14:27;;;;;;;26.40;17.77;;;;;;;2.67;100.00;99660.16;5078256;28;20372;-92
2021/12/31 02:20:17;;;;;;;22.63;16.80;;;;;;;2.81;100.00;99686.66;5077659;28;20032;-92
2021/12/31 02:22:51;;;;;;;22.23;15.65;;;;;;;2.76;100.00;99682.22;5078249;28;20040;-91
2021/12/31 02:25:19;;;;;;;20.60;14.10;;;;;;;2.77;100.00;99678.72;5077732;28;20045;-92
2021/12/31 02:27:45;;;;;;;22.42;15.23;;;;;;;2.65;100.00;99658.38;5057968;28;20044;-93
2021/12/31 02:36:56;;;;;;;26.30;17.58;;;;;;;2.82;100.00;99671.78;5077345;28;20577;-92
2021/12/31 02:39:22;;;;;;;24.90;17.23;;;;;;;2.81;100.00;99664.78;5076999;28;20041;-92
2021/12/31 02:41:47;;;;;;;43.17;20.00;;;;;;;2.91;100.00;99674.59;5077655;28;20056;-93
2021/12/31 02:44:13;;;;;;;35.33;19.10;;;;;;;2.91;100.00;99666.72;5077173;28;20036;-94
2021/12/31 02:50:04;;;;;;;55.45;20.42;;;;;;;2.98;100.00;99673.84;5069427;28;20059;-92
2021/12/31 02:52:32;;;;;;;100.95;21.25;;;;;;;2.89;100.00;99660.56;5077403;28;20398;-93
2021/12/31 02:55:00;;;;;;;57.50;19.65;;;;;;;2.90;100.00;99659.69;5076846;28;20036;-92
2021/12/31 02:57:26;;;;;;;43.25;19.23;;;;;;;2.84;100.00;99655.22;5076649;28;20050;-92
2021/12/31 02:59:52;;;;;;;33.03;17.23;;;;;;;2.91;100.00;99681.56;5076337;28;20071;-92
2021/12/31 03:05:41;;;;;;;43.28;17.50;;;;;;;2.81;100.00;99676.16;5076346;28;20081;-94
2021/12/31 03:08:11;;;;;;;48.05;17.40;;;;;;;2.77;100.00;99669.09;5076251;28;20043;-93
2021/12/31 03:10:37;;;;;;;;;;;;;;;2.82;100.00;99677.94;5076269;28;20039;-92
2021/12/31 03:13:04;;;;;;;62.10;17.75;;;;;;;2.72;100.00;99664.63;5076117;28;19928;-91
2021/12/31 03:15:30;;;;;;;131.70;20.10;;;;;;;2.62;100.00;99653.94;5075177;28;20056;-93
2021/12/31 03:18:00;;;;;;;279.08;24.23;;;;;;;2.73;100.00;99666.38;5075746;28;20055;-92
2021/12/31 03:20:36;;;;;;;120.50;19.95;;;;;;;2.64;100.00;99660.09;5075836;28;20045;-93
2021/12/31 03:23:03;;;;;;;81.70;19.33;;;;;;;2.72;100.00;99680.38;5075665;28;20509;-92
2021/12/31 03:25:33;;;;;;;94.78;18.55;;;;;;;2.67;100.00;99686.41;5075790;28;20040;-93
2021/12/31 03:27:59;;;;;;;64.35;18.05;;;;;;;2.65;100.00;99695.13;5075182;28;20044;-92
2021/12/31 03:37:07;;;;;;;47.72;17.02;;;;;;;2.48;100.00;99700.03;5054364;28;20356;-93
2021/12/31 03:39:33;;;;;;;36.25;17.92;;;;;;;2.37;100.00;99675.31;5066185;28;20055;-93
2021/12/31 03:42:01;;;;;;;29.85;17.13;;;;;;;2.45;100.00;99681.59;5075031;28;20533;-94
2021/12/31 03:44:26;;;;;;;66.28;17.38;;;;;;;2.50;100.00;99700.09;5074813;28;20108;-92
2021/12/31 03:50:14;;;;;;;42.05;15.77;;;;;;;2.41;100.00;99700.78;5074371;28;20029;-93
2021/12/31 03:52:40;;;;;;;57.80;16.42;;;;;;;2.39;100.00;99705.09;5074571;28;20040;-92
2021/12/31 03:55:08;;;;;;;40.85;16.63;;;;;;;2.35;100.00;99698.03;5074327;28;20045;-93
2021/12/31 03:57:35;;;;;;;55.55;17.17;;;;;;;2.30;100.00;99687.44;5074437;28;20514;-93
2021/12/31 04:06:44;;;;;;;43.63;15.75;;;;;;;2.27;100.00;99689.97;5076109;28;20032;-94
2021/12/31 04:09:10;;;;;;;41.53;15.38;;;;;;;2.32;100.00;99706.72;5078451;28;20044;-93
2021/12/31 04:11:36;;;;;;;24.30;15.00;;;;;;;2.32;100.00;99724.19;5080074;28;20043;-92
2021/12/31 04:14:03;;;;;;;19.30;13.82;;;;;;;1.93;100.00;99693.59;5078127;28;20075;-94
2021/12/31 04:19:55;;;;;;;17.02;12.32;;;;;;;2.06;100.00;99719.28;5060602;28;20052;-94
2021/12/31 04:22:24;;;;;;;17.50;12.88;;;;;;;2.12;100.00;99721.13;5077808;28;20063;-93
2021/12/31 04:27:34;;;;;;;19.35;13.00;;;;;;;2.00;100.00;99719.13;5133071;27;20374;-92
2021/12/31 04:30:00;;;;;;;21.13;13.90;;;;;;;2.00;100.00;99722.63;5132844;28;20051;-91
2021/12/31 04:35:48;;;;;;;19.52;13.52;;;;;;;2.13;100.00;99728.16;5132725;28;20477;-92
2021/12/31 04:38:14;;;;;;;40.15;15.95;;;;;;;2.12;100.00;99718.50;5132767;28;20058;-92
2021/12/31 04:40:40;;;;;;;27.88;14.27;;;;;;;2.14;100.00;99709.81;5132895;27;20040;-91
2021/12/31 04:43:07;;;;;;;31.15;15.60;;;;;;;2.14;100.00;99709.81;5132943;27;20493;-91
2021/12/31 04:49:31;;;;;;;58.97;16.08;;;;;;;2.24;100.00;99729.28;5132431;28;20051;-93
2021/12/31 04:51:57;;;;;;;71.70;17.20;;;;;;;2.21;100.00;99724.88;5132632;27;20089;-92
2021/12/31 04:54:23;;;;;;;70.25;16.05;;;;;;;2.17;100.00;99723.03;5132490;28;20039;-92
2021/12/31 04:56:52;;;;;;;86.70;17.55;;;;;;;2.05;100.00;99701.75;5133016;27;20380;-92
2021/12/31 04:59:20;;;;;;;55.35;15.38;;;;;;;1.93;100.00;99710.25;5132455;27;20516;-92
2021/12/31 05:05:08;;;;;;;17.23;12.07;;;;;;;1.92;100.00;99732.06;5132243;28;20020;-93
2021/12/31 05:07:34;;;;;;;16.92;12.13;;;;;;;1.87;100.00;99727.59;5132291;27;20043;-92
2021/12/31 05:09:59;;;;;;;17.80;11.32;;;;;;;1.88;100.00;99730.22;5132218;27;20052;-92
2021/12/31 05:12:29;;;;;;;16.08;11.98;;;;;;;1.77;100.00;99714.22;5132255;28;20397;-92
2021/12/31 05:14:56;;;;;;;17.23;11.02;;;;;;;1.71;100.00;99710.59;5132291;27;20130;-92
2021/12/31 05:17:22;;;;;;;17.85;12.40;;;;;;;1.85;100.00;99731.03;5131733;27;20047;-93
2021/12/31 05:19:48;;;;;;;17.50;12.45;;;;;;;1.96;100.00;99738.28;5131946;28;20475;-92
2021/12/31 05:22:14;;;;;;;17.98;12.15;;;;;;;1.98;100.00;99747.94;5132115;28;20047;-92
2021/12/31 05:24:41;;;;;;;21.98;14.07;;;;;;;2.07;100.00;99756.88;5131914;27;20142;-93
2021/12/31 05:27:07;;;;;;;39.28;14.70;;;;;;;2.12;100.00;99761.38;5131604;28;20434;-93
2021/12/31 05:29:33;;;;;;;83.18;17.50;;;;;;;2.04;100.00;99734.97;5131717;27;20044;-92
2021/12/31 05:35:22;;;;;;;72.70;16.50;;;;;;;2.14;100.00;99735.19;5131952;28;20088;-91
2021/12/31 05:37:48;;;;;;;81.85;18.27;;;;;;;2.05;100.00;99730.59;5123631;27;20100;-92
2021/12/31 05:40:14;;;;;;;92.57;17.33;;;;;;;2.02;100.00;99733.19;5118006;28;20050;-94
2021/12/31 05:42:40;;;;;;;73.20;17.10;;;;;;;2.02;100.00;99741.03;5117815;28;20043;-92
2021/12/31 05:51:50;;;;;;;91.47;16.05;;;;;;;1.79;100.00;99746.63;5117999;28;20031;-93
2021/12/31 05:54:16;;;;;;;53.03;15.05;;;;;;;1.84;100.00;99751.97;5117753;28;20043;-92
2021/12/31 05:56:42;;;;;;;46.13;14.68;;;;;;;1.86;100.00;99766.00;5118190;28;20477;-93
2021/12/31 05:59:07;;;;;;;37.05;14.10;;;;;;;1.72;100.00;99749.97;5117573;28;20043;-92
2021/12/31 06:04:55;;;;;;;35.65;13.15;;;;;;;1.77;100.00;99774.53;5117290;28;20023;-93
2021/12/31 06:07:22;;;;;;;41.50;13.95;;;;;;;1.66;100.00;99747.19;5117734;28;20039;-93
2021/12/31 06:09:48;;;;;;;44.45;13.85;;;;;;;1.70;100.00;99754.28;5117934;28;20067;-94
2021/12/31 06:12:14;;;;;;;58.25;15.02;;;;;;;1.61;100.00;99727.84;5118003;28;20085;-92
2021/12/31 06:14:40;;;;;;;35.65;14.07;;;;;;;1.71;100.00;99744.66;5117402;28;20043;-94
2021/12/31 06:23:51;;;;;;;70.18;15.20;;;;;;;1.84;100.00;99786.06;5117003;28;20030;-93
2021/12/31 06:26:16;;;;;;;80.00;16.20;;;;;;;1.85;100.00;99778.25;5116673;27;20053;-92
2021/12/31 06:28:42;;;;;;;140.02;17.50;;;;;;;1.90;100.00;99780.97;5116954;28;20127;-93
2021/12/31 06:34:33;;;;;;;116.03;16.20;;;;;;;1.90;100.00;99772.22;5096873;28;20066;-93
2021/12/31 06:36:59;;;;;;;147.63;18.05;;;;;;;1.94;100.00;99776.69;5116187;28;20044;-93
2021/12/31 06:39:27;;;;;;;77.50;15.68;;;;;;;1.95;100.00;99784.63;5116917;28;20043;-94
2021/12/31 06:41:53;;;;;;;117.85;16.85;;;;;;;1.79;100.00;99762.34;5117194;28;20131;-93
2021/12/31 06:44:18;;;;;;;94.65;15.90;;;;;;;1.75;100.00;99764.88;5116907;28;20464;-94
2021/12/31 06:50:07;;;;;;;130.68;16.60;;;;;;;1.76;100.00;99782.41;5115613;28;20110;-94
2021/12/31 06:52:36;;;;;;;133.55;15.18;;;;;;;1.78;100.00;99793.81;5116758;28;20040;-93
2021/12/31 06:55:05;;;;;;;57.97;13.32;;;;;;;1.71;100.00;99787.50;5116217;28;20038;-93
2021/12/31 06:57:31;;;;;;;40.83;13.00;;;;;;;1.69;100.00;99775.22;5116594;28;20053;-92
2021/12/31 06:59:56;;;;;;;78.53;14.30;;;;;;;1.69;100.00;99778.72;5116393;28;20492;-95
2021/12/31 07:05:57;;;;;;;102.63;14.18;;;;;;;1.79;100.00;99783.34;5116452;28;20027;-93
2021/12/31 07:08:23;;;;;;;59.28;13.63;;;;;;;1.83;100.00;99793.06;5116322;28;20398;-93
2021/12/31 07:10:50;;;;;;;102.80;16.95;;;;;;;1.83;100.00;99792.19;5116335;28;20048;-92
2021/12/31 07:13:16;;;;;;;37.72;12.95;;;;;;;1.76;100.00;99783.28;5116220;27;20493;-94
2021/12/31 07:19:34;;;;;;;38.17;13.63;;;;;;;1.91;100.00;99802.84;5116066;28;20485;-92
2021/12/31 07:22:00;;;;;;;37.45;14.35;;;;;;;1.98;100.00;99789.91;5115871;28;20039;-94
2021/12/31 07:24:27;;;;;;;40.80;14.50;;;;;;;1.87;100.00;99780.03;5116067;28;20036;-93
2021/12/31 07:26:54;;;;;;;49.55;15.50;;;;;;;2.10;100.00;99794.56;5115500;27;20048;-93
2021/12/31 07:29:20;;;;;;;63.40;17.27;;;;;;;2.16;100.00;99805.19;5116024;28;20051;-92
2021/12/31 07:35:08;;;;;;;51.30;16.50;;;;;;;2.35;100.00;99814.38;5115855;28;20028;-94
2021/12/31 07:37:34;;;;;;;53.33;16.88;;;;;;;2.41;100.00;99822.41;5115347;28;20087;-92
2021/12/31 07:40:04;;;;;;;53.40;17.35;;;;;;;2.45;100.00;99821.63;5116091;28;20043;-96
2021/12/31 07:42:31;;;;;;;52.40;16.27;;;;;;;2.37;100.00;99802.19;5115920;28;20047;-93
2021/12/31 07:44:57;;;;;;;46.63;15.98;;;;;;;2.44;100.00;99819.84;5115846;28;20054;-93
2021/12/31 07:50:45;;;;;;;43.63;14.60;;;;;;;2.47;100.00;99816.38;5115595;28;20062;-93
2021/12/31 07:53:11;;;;;;;57.38;15.02;;;;;;;2.56;100.00;99816.63;5115260;28;20092;-93
2021/12/31 07:55:37;;;;;;;48.03;14.07;;;;;;;2.68;100.00;99808.09;5115667;28;20552;-94
2021/12/31 07:58:05;;;;;;;23.42;13.38;;;;;;;2.85;100.00;99803.22;5115703;28;20389;-94
2021/12/31 08:04:33;;;;;;;24.02;14.00;;;;;;;3.28;100.00;99828.59;5115485;28;20032;-94
2021/12/31 08:06:59;;;;;;;30.65;13.88;;;;;;;3.28;100.00;99815.44;5115158;28;20035;-93
2021/12/31 08:09:25;;;;;;;29.90;15.30;;;;;;;3.37;100.00;99813.84;5115731;28;20127;-95
2021/12/31 08:11:51;;;;;;;27.13;15.07;;;;;;;3.48;100.00;99815.81;5115374;28;20043;-93
2021/12/31 08:14:18;;;;;;;38.13;14.82;;;;;;;3.48;100.00;99822.81;5115242;28;20047;-93
2021/12/31 08:20:06;;;;;;;39.80;14.75;;;;;;;3.60;100.00;99840.56;5115600;28;20610;-94
2021/12/31 08:22:33;;;;;;;63.63;15.30;;;;;;;3.65;100.00;99845.06;5115184;28;20519;-94
2021/12/31 08:25:00;;;;;;;36.13;14.65;;;;;;;3.54;100.00;99817.69;5115057;28;20074;-92
2021/12/31 08:27:26;;;;;;;47.38;14.73;;;;;;;3.64;100.00;99823.97;5114870;28;20051;-95
2021/12/31 08:29:53;;;;;;;39.78;15.38;;;;;;;3.78;100.00;99830.38;5115394;28;20120;-93
2021/12/31 08:35:41;;;;;;;87.68;17.38;;;;;;;3.94;100.00;99833.25;5115303;28;20110;-93
2021/12/31 08:38:07;;;;;;;113.93;17.08;;;;;;;3.73;100.00;99824.16;5115383;28;20063;-93
2021/12/31 08:40:33;;;;;;;95.72;17.77;;;;;;;3.74;100.00;99823.28;5114945;28;20078;-92
2021/12/31 08:42:58;;;;;;;134.70;18.17;;;;;;;3.81;100.00;99834.81;5115063;28;20492;-93
2021/12/31 08:49:32;;;;;;;77.28;17.88;;;;;;;4.19;100.00;99843.34;5115125;28;20043;-93
2021/12/31 08:52:01;;;;;;;60.58;17.40;;;;;;;4.13;100.00;99837.97;5114961;28;20031;-93
2021/12/31 08:54:28;;;;;;;73.18;18.98;;;;;;;4.03;100.00;99823.75;5114867;28;20044;-94
2021/12/31 08:56:54;;;;;;;48.35;18.65;;;;;;;4.14;100.00;99842.34;5115063;28;20488;-92
2021/12/31 08:59:20;;;;;;;58.67;19.48;;;;;;;4.16;100.00;99829.22;5114685;28;20073;-93
2021/12/31 09:01:46;;;;;;;101.43;21.05;;;;;;;4.40;100.00;99855.06;5114418;28;20039;-93
2021/12/31 09:04:12;;;;;;;59.22;19.30;;;;;;;4.50;100.00;99857.84;5114650;28;20401;-93
2021/12/31 09:06:38;;;;;;;54.60;16.15;;;;;;;4.57;100.00;99857.94;5114547;28;20031;-95
2021/12/31 09:09:06;;;;;;;33.83;16.33;;;;;;;4.51;100.00;99837.66;5114944;28;20050;-94
2021/12/31 09:11:32;;;;;;;49.17;16.17;;;;;;;4.56;100.00;99840.38;5114553;28;20050;-91
2021/12/31 09:13:58;;;;;;;64.93;19.20;;;;;;;4.83;100.00;99860.94;5117656;28;20040;-92
2021/12/31 09:19:45;;;;;;;33.80;15.82;;;;;;;4.80;100.00;99851.25;5118117;28;20031;-94
2021/12/31 09:22:11;;;;;;;72.45;18.00;;;;;;;4.86;100.00;99845.19;5118498;28;20035;-92
2021/12/31 09:24:39;;;;;;;40.25;18.27;;;;;;;4.91;100.00;99844.38;5118419;28;20535;-93
2021/12/31 09:27:05;;;;;;;62.20;20.13;;;;;;;5.10;100.00;99866.59;5117944;28;20043;-92
2021/12/31 09:29:32;;;;;;;51.38;19.88;;;;;;;5.18;100.00;99856.13;5118786;28;20043;-93
2021/12/31 09:35:19;;;;;;;85.30;19.70;;;;;;;5.34;100.00;99854.56;5099341;28;20039;-93
2021/12/31 09:37:45;;;;;;;67.25;20.70;;;;;;;5.43;100.00;99853.78;5103209;28;20389;-93
2021/12/31 09:40:15;;;;;;;56.67;18.23;;;;;;;5.52;100.00;99849.47;5119674;28;20493;-93
2021/12/31 09:42:46;;;;;;;58.97;16.88;;;;;;;5.52;100.00;99856.50;5119858;28;20126;-93
2021/12/31 09:51:55;;;;;;;77.03;19.50;;;;;;;5.57;100.00;99841.59;5120994;28;20085;-94
2021/12/31 09:54:22;;;;;;;67.18;17.70;;;;;;;5.68;100.00;99868.09;5119340;28;20049;-94
2021/12/31 09:56:50;;;;;;;30.98;18.23;;;;;;;5.69;100.00;99877.81;5119663;28;20093;-94
2021/12/31 09:59:17;;;;;;;31.50;16.90;;;;;;;5.72;100.00;99856.72;5118816;28;20044;-94
2021/12/31 10:12:41;;;;;;;56.78;20.45;;;;;;;6.27;100.00;99856.38;5110747;28;20039;-94
2021/12/31 10:18:32;;;;;;;56.65;26.52;;;;;;;6.37;100.00;99853.78;5118277;28;20056;-94
2021/12/31 10:20:58;;;;;;;98.75;39.22;;;;;;;6.39;100.00;99832.66;5119047;28;20079;-93
2021/12/31 10:23:24;;;;;;;68.35;23.63;;;;;;;6.38;100.00;99837.06;5119274;28;20039;-94
2021/12/31 10:25:50;;;;;;;54.03;24.92;;;;;;;6.39;100.00;99830.03;5119003;28;20113;-94
2021/12/31 10:28:19;;;;;;;43.10;22.73;;;;;;;6.55;100.00;99837.19;5118207;28;20039;-96
2021/12/31 10:34:25;;;;;;;48.13;27.98;;;;;;;6.61;100.00;99824.88;5097680;28;20481;-94
2021/12/31 10:36:50;;;;;;;38.25;20.92;;;;;;;6.74;100.00;99822.31;5098115;28;20497;-95
2021/12/31 10:39:18;;;;;;;41.35;22.88;;;;;;;6.76;100.00;99804.69;5099027;28;20097;-93
2021/12/31 10:41:48;;;;;;;37.45;23.52;;;;;;;7.00;100.00;99829.47;5114247;28;20044;-94
2021/12/31 10:44:14;;;;;;;56.45;36.63;;;;;;;7.00;100.00;99805.69;5117984;28;20053;-93
2021/12/31 10:50:12;;;;;;;57.83;29.83;;;;;;;7.07;98.97;99819.81;5117218;28;20031;-94
2021/12/31 10:52:42;;;;;;;48.63;25.90;;;;;;;6.92;99.49;99803.03;5118502;28;20043;-94
2021/12/31 10:58:12;;;;;;;62.72;27.17;;;;;;;6.50;100.00;99812.47;5155595;27;20375;-94
2021/12/31 11:04:34;;;;;;;56.83;31.05;;;;;;;6.81;100.00;99804.72;5153877;27;20504;-95
2021/12/31 11:07:00;;;;;;;54.33;29.73;;;;;;;6.95;100.00;99796.84;5149237;27;20044;-93
2021/12/31 11:09:32;;;;;;;44.65;26.30;;;;;;;7.05;100.00;99782.78;5149602;27;20043;-95
2021/12/31 11:11:59;;;;;;;47.47;28.42;;;;;;;7.18;100.00;99796.94;5133177;28;20071;-93
2021/12/31 11:14:26;;;;;;;50.20;27.10;;;;;;;7.05;100.00;99781.88;5133200;27;20080;-93
2021/12/31 11:20:20;;;;;;;45.60;26.92;;;;;;;6.95;100.00;99787.16;5153661;27;20117;-94
2021/12/31 11:22:46;;;;;;;41.95;27.38;;;;;;;6.84;100.00;99765.06;5153464;27;20047;-94
2021/12/31 11:25:27;;;;;;;42.88;25.75;;;;;;;6.87;100.00;99778.28;5153839;27;20172;-93
2021/12/31 11:27:54;;;;;;;42.60;25.75;;;;;;;6.79;100.00;99765.06;5154438;27;20437;-93
2021/12/31 11:34:31;;;;;;;42.63;25.42;;;;;;;6.93;100.00;99777.44;5154277;27;20050;-93
2021/12/31 11:36:58;;;;;;;42.78;25.58;;;;;;;6.81;100.00;99753.59;5151626;27;20027;-94
2021/12/31 11:39:28;;;;;;;43.03;26.17;;;;;;;6.85;100.00;99764.19;5174033;27;20049;-94
2021/12/31 11:41:56;;;;;;;47.33;29.67;;;;;;;6.87;100.00;99759.78;5174410;27;20069;-93
2021/12/31 11:44:24;;;;;;;54.85;35.45;;;;;;;6.97;100.00;99763.38;5158153;27;20050;-94
2021/12/31 11:50:25;;;;;;;55.75;35.72;;;;;;;7.15;100.00;99776.63;5153864;27;20027;-95
2021/12/31 11:53:02;;;;;;;59.88;34.47;;;;;;;7.03;100.00;99751.94;5154409;27;20106;-95
2021/12/31 11:55:41;;;;;;;59.83;34.88;;;;;;;7.11;100.00;99759.00;5154285;27;20060;-95
2021/12/31 11:58:35;;;;;;;53.80;33.63;;;;;;;7.11;100.00;99755.47;5155087;27;20129;-96
2021/12/31 12:05:03;;;;;;;58.35;36.53;;;;;;;7.08;100.00;99743.13;5135498;28;20038;-94
2021/12/31 12:07:34;;;;;;;54.97;34.10;;;;;;;7.13;100.00;99736.06;5134698;28;20051;-94
2021/12/31 12:10:26;;;;;;;55.15;35.35;;;;;;;7.39;100.00;99767.91;5121638;28;20563;-96
2021/12/31 12:12:56;;;;;;;55.75;35.15;;;;;;;7.33;100.00;99738.78;5122891;28;20079;-95
2021/12/31 12:18:56;;;;;;;48.42;29.95;;;;;;;7.45;100.00;99726.44;5143610;27;20031;-95
2021/12/31 12:21:36;;;;;;;47.20;29.70;;;;;;;7.48;100.00;99737.00;5143984;27;20102;-96
2021/12/31 12:24:02;;;;;;;55.25;31.38;;;;;;;7.51;100.00;99726.44;5140635;27;20530;-94
2021/12/31 12:26:30;;;;;;;51.97;32.00;;;;;;;7.65;100.00;99744.97;5141856;27;20129;-95
2021/12/31 12:28:56;;;;;;;51.45;32.22;;;;;;;7.60;100.00;99732.59;5143627;27;20495;-92
2021/12/31 12:34:44;;;;;;;57.67;35.45;;;;;;;7.66;100.00;99714.97;5142908;27;20083;-95
2021/12/31 12:37:11;;;;;;;58.78;34.97;;;;;;;7.64;100.00;99708.81;5144311;27;20099;-96
2021/12/31 12:39:37;;;;;;;62.38;34.95;;;;;;;7.68;100.00;99718.50;5144579;27;20045;-94
2021/12/31 12:42:11;;;;;;;57.85;34.95;;;;;;;7.69;100.00;99712.31;5145460;27;20405;-95
2021/12/31 12:44:39;;;;;;;49.20;32.67;;;;;;;7.74;100.00;99707.91;5144765;27;20046;-93
2021/12/31 12:50:26;;;;;;;57.78;33.90;;;;;;;7.86;100.00;99728.22;5143540;27;20127;-95
2021/12/31 12:52:53;;;;;;;52.88;34.53;;;;;;;7.81;100.00;99725.56;5141909;27;20050;-95
2021/12/31 12:55:19;;;;;;;56.58;34.60;;;;;;;7.80;100.00;99713.19;5141395;27;20049;-96
2021/12/31 12:57:53;;;;;;;53.38;32.20;;;;;;;7.80;100.00;99721.13;5139019;27;20087;-94
2021/12/31 13:07:21;;;;;;;61.58;35.38;;;;;;;7.74;100.00;99711.44;5124288;27;20031;-94
2021/12/31 13:09:47;;;;;;;52.35;32.03;;;;;;;7.74;100.00;99719.41;5140768;27;20334;-94
2021/12/31 13:12:17;;;;;;;51.55;32.65;;;;;;;7.66;100.00;99707.03;5141600;27;20044;-95
2021/12/31 13:14:47;;;;;;;61.03;37.22;;;;;;;7.82;100.00;99724.66;5140433;27;20043;-95
2021/12/31 13:20:36;;;;;;;62.28;36.70;;;;;;;7.88;100.00;99716.72;5139550;27;20429;-94
2021/12/31 13:23:05;;;;;;;56.30;36.80;;;;;;;7.87;100.00;99706.13;5140157;27;20039;-95
2021/12/31 13:25:39;;;;;;;45.30;31.25;;;;;;;7.89;100.00;99705.22;5141574;27;20505;-95
2021/12/31 13:28:14;;;;;;;51.45;32.85;;;;;;;7.99;100.00;99695.53;5141587;27;20062;-96
2021/12/31 13:34:14;;;;;;;56.45;36.03;;;;;;;8.07;100.00;99704.34;5142628;27;20059;-95
2021/12/31 13:36:45;;;;;;;57.75;35.50;;;;;;;8.07;100.00;99700.78;5141292;27;20035;-95
2021/12/31 13:39:13;;;;;;;61.25;37.58;;;;;;;8.19;100.00;99712.25;5141948;27;20074;-95
2021/12/31 13:41:55;;;;;;;61.42;37.05;;;;;;;8.19;100.00;99706.06;5141820;27;20050;-94
2021/12/31 13:44:24;;;;;;;61.00;36.67;;;;;;;8.09;100.00;99685.78;5142144;27;20035;-95
2021/12/31 13:49:56;;;;;;;58.20;36.03;;;;;;;8.28;100.00;99719.28;5121663;28;19911;-95
2021/12/31 13:52:25;;;;;;;56.83;35.58;;;;;;;8.20;100.00;99707.84;5128695;27;20516;-95
2021/12/31 13:54:52;;;;;;;62.50;37.87;;;;;;;8.21;100.00;99691.94;5140162;27;20054;-95
2021/12/31 13:57:23;;;;;;;59.22;37.47;;;;;;;8.21;100.00;99683.09;5140265;27;20100;-94
2021/12/31 13:59:49;;;;;;;56.60;36.88;;;;;;;8.37;100.00;99689.22;5141974;27;20046;-95
2021/12/31 14:05:47;;;;;;;57.15;35.60;;;;;;;8.45;100.00;99686.59;5140910;27;20034;-95
2021/12/31 14:11:22;;;;;;;47.55;30.20;;;;;;;8.67;100.00;99693.56;5095549;27;20378;-94
2021/12/31 14:13:51;;;;;;;45.70;30.00;;;;;;;8.65;100.00;99684.72;5094465;28;20056;-94
2021/12/31 14:19:40;;;;;;;42.25;29.70;;;;;;;8.82;100.00;99689.97;5095782;28;20036;-94
2021/12/31 14:22:06;;;;;;;44.17;30.55;;;;;;;8.86;100.00;99685.53;5094983;28;20150;-94
2021/12/31 14:24:33;;;;;;;46.05;30.70;;;;;;;8.91;100.00;99700.50;5094201;28;20080;-94
2021/12/31 14:27:02;;;;;;;45.63;29.70;;;;;;;8.91;100.00;99702.28;5094130;28;20047;-95
2021/12/31 14:29:28;;;;;;;44.70;30.08;;;;;;;8.86;100.00;99704.97;5093654;28;20045;-94
2021/12/31 14:35:23;;;;;;;44.95;29.67;;;;;;;8.88;100.00;99729.72;5093699;28;20032;-94
2021/12/31 14:37:49;;;;;;;51.60;32.90;;;;;;;8.70;100.00;99703.28;5094101;28;20036;-94
2021/12/31 14:40:19;;;;;;;52.58;35.08;;;;;;;8.62;100.00;99698.00;5096770;28;20048;-96
2021/12/31 14:42:48;;;;;;;56.25;34.78;;;;;;;8.67;100.00;99706.81;5097489;28;20040;-95
2021/12/31 14:45:15;;;;;;;55.65;35.92;;;;;;;8.71;100.00;99716.53;5096369;28;20059;-94
2021/12/31 14:47:43;;;;;;;57.42;36.17;;;;;;;8.52;100.00;99693.63;5095886;28;20044;-96
2021/12/31 14:50:11;;;;;;;56.85;36.58;;;;;;;8.64;100.00;99707.72;5097186;28;20040;-95
2021/12/31 14:52:39;;;;;;;51.28;36.72;;;;;;;8.54;100.00;99686.56;5096814;28;20094;-95
2021/12/31 14:55:08;;;;;;;59.67;39.03;;;;;;;8.56;100.00;99698.03;5096541;28;20180;-93
2021/12/31 14:57:35;;;;;;;61.88;41.30;;;;;;;8.52;100.00;99693.63;5097047;28;20440;-94
2021/12/31 15:00:03;;;;;;;63.88;41.60;;;;;;;8.48;100.00;99707.78;5096014;28;20044;-95
2021/12/31 15:02:29;;;;;;;60.50;38.17;;;;;;;8.38;100.00;99691.88;5097063;28;20044;-95
2021/12/31 15:04:56;;;;;;;65.78;40.95;;;;;;;8.33;100.00;99706.94;5096490;28;20039;-95
2021/12/31 15:07:22;;;;;;;74.10;44.72;;;;;;;8.36;100.00;99698.94;5098118;28;20044;-94
2021/12/31 15:09:48;;;;;;;77.95;45.20;;;;;;;8.28;100.00;99700.75;5098916;28;20052;-96